Norlina, North Carolina
Current Conditions -  °F | °C
As of 7:16 PM on Sunday 25 Jan 2015 (Local Time) from KAVC Reporting Station
Clear Clear  
Wind Chill: 35°   Ceiling: Unl
Heat Index: 38°   Visibility: 10mi
Dew Point: 33°   Wind: 5mph
Humidity: 81%   Direction: 150°SSE
Pressure: 29.9"   Gusts: NA
Location:  36.45°N, 78.2°W
Report Text: KAVC 260016Z AUTO 15004KT 10SM CLR 04/01 A2990 RMK AO2 T00350005
Loading
Personal Weather Stations






























Interactive Weather Map New forecast layout! Learn more

10-Day Weather Forecast

Advertisements
Track Severe Weather on mobile